San Antonio, Texas
Traffic Map
Current Weather Conditions
San Antonio, Texas
Clear
Clear
16°
Feels Like: 16°
Wind Chill: 16° Ceiling: Unl
Heat Index: 16° Visibility: 10mi
Dew Point: 13° Wind: 2mph
Humidity: 86% Direction: 300° (WNW)
Pressure: 30.1in Gusts: 0mph
Raw Report DataKSKF 240958Z AUTO 30002KT 10SM CLR 16/13 A3010 RMK AO2 SLP188 T01580134 $
Traffic Incident Summary
Active as of:
Severity:
Category:
InformationThere was an issue retrieving the traffic information for this location. Please try a different location or try again shortly.
Advertisements
Track Severe Weather on mobile